createdAt,value
2019-01-20T00:00:02.868Z,88.39
2019-01-20T00:02:33.951Z,88.42
2019-01-20T00:05:06.616Z,88.39
2019-01-20T00:07:37.664Z,88.39
2019-01-20T00:10:09.733Z,88.29
2019-01-20T00:12:40.788Z,88.02
2019-01-20T00:15:11.972Z,88.05
2019-01-20T00:17:43.099Z,88.25
2019-01-20T00:20:14.583Z,88.31
2019-01-20T00:22:45.976Z,88.14
2019-01-20T00:25:17.703Z,88.05
2019-01-20T00:27:48.845Z,88.30
2019-01-20T00:30:22.662Z,88.03
2019-01-20T00:32:55.683Z,88.35
2019-01-20T00:35:28.824Z,88.13
2019-01-20T00:37:59.918Z,88.21
2019-01-20T00:40:32.442Z,87.95
2019-01-20T00:43:03.659Z,88.07
2019-01-20T00:45:35.127Z,88.02
2019-01-20T00:48:05.870Z,88.10
2019-01-20T00:50:37.428Z,88.08
2019-01-20T00:53:09.091Z,87.97
2019-01-20T00:55:40.206Z,88.17
2019-01-20T00:58:12.048Z,88.43
2019-01-20T01:00:43.239Z,88.28
2019-01-20T01:03:15.024Z,88.12
2019-01-20T01:05:46.247Z,87.86
2019-01-20T01:08:18.476Z,87.96
2019-01-20T01:10:50.061Z,88.10
2019-01-20T01:13:21.288Z,88.23
2019-01-20T01:15:52.322Z,88.22
2019-01-20T01:18:23.809Z,88.22
2019-01-20T01:20:55.193Z,88.42
2019-01-20T01:29:51.016Z,88.42
2019-01-20T01:32:22.148Z,88.61
2019-01-20T01:34:53.752Z,88.56
2019-01-20T01:37:25.130Z,88.61
2019-01-20T01:39:56.070Z,88.72
2019-01-20T01:42:27.840Z,88.78
2019-01-20T01:44:59.307Z,88.92
2019-01-20T01:47:30.323Z,88.92
2019-01-20T01:50:01.693Z,88.88
2019-01-20T01:52:33.142Z,88.58
2019-01-20T01:55:04.248Z,88.63
2019-01-20T01:57:35.838Z,88.43
2019-01-20T02:00:11.660Z,88.39
2019-01-20T02:02:42.349Z,88.40
2019-01-20T02:05:13.042Z,88.52
2019-01-20T02:07:44.045Z,88.66
2019-01-20T02:10:21.289Z,88.63
2019-01-20T02:12:53.573Z,88.66
2019-01-20T02:15:24.850Z,88.65
2019-01-20T02:17:56.155Z,88.66
2019-01-20T02:20:27.210Z,88.73
2019-01-20T02:22:58.225Z,88.75
2019-01-20T02:25:29.703Z,88.77
2019-01-20T02:28:01.071Z,88.69
2019-01-20T02:30:33.094Z,88.84
2019-01-20T02:33:04.065Z,88.64
2019-01-20T02:35:35.462Z,88.60
2019-01-20T02:38:06.203Z,88.48
2019-01-20T02:40:37.625Z,88.48
2019-01-20T02:43:08.262Z,88.39
2019-01-20T02:45:39.283Z,88.26
2019-01-20T02:48:10.346Z,88.36
2019-01-20T02:50:41.415Z,88.53
2019-01-20T02:53:12.786Z,88.27
2019-01-20T02:55:44.133Z,88.39
2019-01-20T02:58:15.574Z,88.38
2019-01-20T03:00:50.077Z,88.52
2019-01-20T03:03:21.044Z,88.36
2019-01-20T03:05:52.097Z,88.24
2019-01-20T03:08:23.200Z,88.14
2019-01-20T03:10:54.226Z,88.05
2019-01-20T03:13:25.431Z,87.90
2019-01-20T03:15:56.475Z,87.79
2019-01-20T03:18:27.145Z,87.80
2019-01-20T03:20:57.943Z,87.73
2019-01-20T03:23:28.709Z,87.77
2019-01-20T03:29:24.967Z,87.61
2019-01-20T03:31:56.420Z,87.80
2019-01-20T03:34:27.716Z,87.91
2019-01-20T03:36:59.245Z,87.97
2019-01-20T03:39:30.177Z,88.34
2019-01-20T03:42:01.369Z,88.30
2019-01-20T03:44:32.449Z,88.22
2019-01-20T03:47:04.045Z,88.12
2019-01-20T03:49:35.769Z,88.19
2019-01-20T03:52:06.829Z,87.85
2019-01-20T03:54:38.239Z,87.88
2019-01-20T03:57:08.908Z,87.75
2019-01-20T03:59:39.939Z,87.72
2019-01-20T04:02:11.285Z,87.66
2019-01-20T04:04:41.900Z,87.91
2019-01-20T04:07:14.051Z,87.76
2019-01-20T04:09:45.043Z,87.87
2019-01-20T04:12:20.728Z,87.92
2019-01-20T04:14:48.412Z,87.91
2019-01-20T04:17:19.355Z,87.94
2019-01-20T04:19:50.297Z,87.95
2019-01-20T04:22:21.340Z,87.88
2019-01-20T04:24:51.981Z,88.01
2019-01-20T04:27:23.305Z,88.17
2019-01-20T04:29:54.433Z,88.23
2019-01-20T04:32:25.409Z,88.11
2019-01-20T04:34:56.431Z,88.16
2019-01-20T04:37:27.455Z,88.26
2019-01-20T04:39:58.743Z,88.59
2019-01-20T04:42:30.146Z,88.70
2019-01-20T04:45:01.847Z,88.58
2019-01-20T04:47:32.819Z,88.29
2019-01-20T04:50:05.750Z,88.10
2019-01-20T04:52:39.878Z,88.27
2019-01-20T04:55:14.096Z,88.12
2019-01-20T04:57:49.243Z,88.11
2019-01-20T05:00:22.756Z,88.25
2019-01-20T05:02:57.141Z,88.24
2019-01-20T05:05:28.274Z,88.32
2019-01-20T05:07:59.349Z,88.57
2019-01-20T05:10:30.949Z,88.29
2019-01-20T05:13:02.317Z,88.24
2019-01-20T05:15:33.684Z,88.19
2019-01-20T05:18:05.176Z,88.12
2019-01-20T05:20:36.480Z,88.08
2019-01-20T05:23:08.458Z,88.43
2019-01-20T05:25:39.675Z,88.34
2019-01-20T05:28:11.105Z,88.19
2019-01-20T05:30:42.476Z,88.08
2019-01-20T05:33:13.567Z,87.86
2019-01-20T05:35:44.933Z,87.89
2019-01-20T05:38:16.047Z,87.95
2019-01-20T05:40:46.714Z,87.88
2019-01-20T05:43:17.787Z,88.05
2019-01-20T05:45:49.403Z,88.13
2019-01-20T05:48:20.441Z,88.35
2019-01-20T05:50:51.762Z,88.26
2019-01-20T05:53:23.180Z,88.25
2019-01-20T05:55:54.149Z,88.33
2019-01-20T05:58:25.544Z,88.16
2019-01-20T06:00:56.601Z,87.71
2019-01-20T06:03:27.680Z,87.75
2019-01-20T06:05:58.955Z,87.91
2019-01-20T06:08:31.176Z,87.98
2019-01-20T06:11:02.544Z,87.99
2019-01-20T06:13:35.500Z,87.70
2019-01-20T06:16:06.242Z,87.79
2019-01-20T06:18:37.216Z,87.89
2019-01-20T06:21:07.969Z,87.68
2019-01-20T06:23:39.052Z,87.64
2019-01-20T06:26:10.112Z,87.56
2019-01-20T06:28:41.600Z,87.67
2019-01-20T06:31:12.976Z,87.82
2019-01-20T06:33:43.992Z,87.90
2019-01-20T06:36:14.727Z,87.85
2019-01-20T06:38:45.615Z,88.00
2019-01-20T06:41:16.312Z,88.08
2019-01-20T06:43:47.133Z,88.03
2019-01-20T06:46:17.816Z,88.00
2019-01-20T06:48:48.453Z,88.04
2019-01-20T06:51:19.616Z,88.18
2019-01-20T06:53:50.640Z,88.16
2019-01-20T06:56:21.351Z,87.94
2019-01-20T06:58:52.970Z,87.78
2019-01-20T07:01:23.971Z,87.58
2019-01-20T07:03:54.887Z,87.63
2019-01-20T07:06:25.984Z,87.62
2019-01-20T07:08:57.827Z,87.80
2019-01-20T07:11:28.675Z,87.82
2019-01-20T07:13:59.344Z,87.84
2019-01-20T07:16:30.436Z,87.84
2019-01-20T07:19:01.176Z,87.98
2019-01-20T07:21:31.863Z,88.02
2019-01-20T07:24:03.288Z,88.02
2019-01-20T07:26:33.921Z,88.02
2019-01-20T07:29:04.986Z,88.03
2019-01-20T07:31:35.666Z,88.11
2019-01-20T07:34:06.297Z,88.05
2019-01-20T07:36:36.970Z,88.01
2019-01-20T07:39:09.229Z,88.17
2019-01-20T07:41:40.119Z,88.32
2019-01-20T07:44:10.733Z,88.51
2019-01-20T07:46:41.956Z,88.66
2019-01-20T07:49:12.617Z,88.62
2019-01-20T07:51:43.343Z,88.81
2019-01-20T07:54:14.375Z,88.87
2019-01-20T07:56:48.174Z,88.92
2019-01-20T07:59:19.377Z,88.98
2019-01-20T08:01:50.234Z,88.95
2019-01-20T08:04:21.336Z,88.88
2019-01-20T08:06:52.319Z,88.86
2019-01-20T08:09:23.299Z,88.84
2019-01-20T08:11:54.069Z,88.76
2019-01-20T08:14:25.566Z,88.58
2019-01-20T08:16:56.309Z,88.47
2019-01-20T08:19:27.275Z,88.38
2019-01-20T08:21:58.490Z,88.10
2019-01-20T08:24:29.478Z,87.90
2019-01-20T08:27:00.400Z,87.70
2019-01-20T08:29:31.365Z,87.52
2019-01-20T08:32:02.052Z,87.33
2019-01-20T08:34:32.673Z,87.16
2019-01-20T08:37:04.399Z,87.10
2019-01-20T08:39:35.085Z,87.05
2019-01-20T08:42:05.743Z,86.85
2019-01-20T08:44:41.526Z,86.79
2019-01-20T08:47:33.768Z,86.78
2019-01-20T08:50:10.617Z,86.80
2019-01-20T08:52:41.536Z,86.61
2019-01-20T08:55:12.797Z,86.57
2019-01-20T08:57:43.835Z,86.56
2019-01-20T09:00:17.505Z,86.55
2019-01-20T09:02:48.527Z,86.52
2019-01-20T09:05:19.276Z,86.52
2019-01-20T09:07:50.325Z,86.44
2019-01-20T09:10:27.471Z,86.45
2019-01-20T09:13:01.620Z,86.77
2019-01-20T09:15:32.838Z,86.56
2019-01-20T09:18:04.111Z,86.19
2019-01-20T09:20:34.801Z,86.04
2019-01-20T09:23:06.076Z,86.07
2019-01-20T09:25:37.201Z,85.09
2019-01-20T09:28:08.140Z,84.63
2019-01-20T09:30:39.275Z,84.50
2019-01-20T09:33:10.038Z,84.19
2019-01-20T09:35:41.012Z,82.65
2019-01-20T09:38:11.919Z,82.65
2019-01-20T09:40:42.613Z,83.40
2019-01-20T09:43:13.313Z,82.33
2019-01-20T09:45:44.148Z,81.80
2019-01-20T09:48:16.950Z,81.44
2019-01-20T09:50:47.662Z,82.26
2019-01-20T09:53:18.301Z,80.59
2019-01-20T09:55:49.330Z,80.48
2019-01-20T09:58:20.052Z,80.49
2019-01-20T10:00:51.009Z,78.18
2019-01-20T10:03:21.713Z,78.03
2019-01-20T10:05:52.666Z,77.85
2019-01-20T10:08:23.649Z,77.68
2019-01-20T10:10:54.705Z,75.67
2019-01-20T10:13:25.352Z,75.32
2019-01-20T10:15:56.023Z,74.87
2019-01-20T10:18:27.449Z,73.56
2019-01-20T10:20:58.723Z,73.46
2019-01-20T10:23:29.331Z,73.49
2019-01-20T10:26:00.101Z,71.94
2019-01-20T10:28:30.758Z,73.54
2019-01-20T10:31:01.548Z,72.75
2019-01-20T10:33:32.229Z,73.32
2019-01-20T10:36:04.733Z,73.21
2019-01-20T10:38:37.451Z,72.77
2019-01-20T10:41:08.113Z,73.52
2019-01-20T10:43:38.809Z,73.65
2019-01-20T10:46:09.729Z,74.33
2019-01-20T10:48:40.767Z,73.28
2019-01-20T10:51:11.689Z,73.75
2019-01-20T10:53:42.893Z,74.95
2019-01-20T10:56:16.459Z,74.57
2019-01-20T10:58:47.431Z,73.26
2019-01-20T11:01:18.549Z,74.30
2019-01-20T11:03:49.290Z,74.17
2019-01-20T11:06:20.393Z,74.01
2019-01-20T11:08:51.024Z,73.66
2019-01-20T11:11:21.874Z,73.53
2019-01-20T11:13:53.141Z,73.02
2019-01-20T11:16:23.760Z,74.58
2019-01-20T11:18:54.588Z,73.20
2019-01-20T11:21:25.276Z,73.72
2019-01-20T11:23:55.999Z,72.99
2019-01-20T11:26:26.667Z,72.56
2019-01-20T11:28:57.328Z,72.55
2019-01-20T11:31:31.098Z,72.19
2019-01-20T11:34:01.796Z,72.42
2019-01-20T11:36:32.806Z,71.96
2019-01-20T11:39:04.789Z,73.31
2019-01-20T11:41:37.460Z,72.31
2019-01-20T11:44:08.499Z,71.86
2019-01-20T11:46:39.462Z,70.19
2019-01-20T11:49:10.353Z,70.33
2019-01-20T11:51:41.232Z,69.35
2019-01-20T11:54:12.131Z,69.79
2019-01-20T11:56:42.778Z,69.79
2019-01-20T11:59:13.841Z,68.56
2019-01-20T12:01:45.209Z,68.00
2019-01-20T12:04:15.943Z,68.00
2019-01-20T12:06:46.561Z,68.78
2019-01-20T12:09:19.799Z,68.54
2019-01-20T12:11:50.482Z,69.38
2019-01-20T12:14:24.167Z,67.54
2019-01-20T12:16:54.201Z,69.09
2019-01-20T12:19:25.178Z,68.67
2019-01-20T12:21:56.501Z,67.97
2019-01-20T12:24:27.803Z,66.72
2019-01-20T12:26:58.866Z,67.10
2019-01-20T12:29:29.557Z,66.60
2019-01-20T12:32:00.164Z,66.85
2019-01-20T12:34:31.972Z,65.77
2019-01-20T12:37:02.846Z,65.31
2019-01-20T12:39:33.861Z,65.10
2019-01-20T12:42:04.635Z,63.78
2019-01-20T12:44:35.279Z,64.94
2019-01-20T12:47:05.962Z,66.39
2019-01-20T12:49:36.946Z,66.26
2019-01-20T12:52:08.714Z,66.69
2019-01-20T12:54:41.099Z,67.56
2019-01-20T12:57:12.827Z,67.71
2019-01-20T12:59:44.575Z,67.37
2019-01-20T13:02:15.863Z,67.49
2019-01-20T13:04:46.560Z,67.37
2019-01-20T13:07:17.950Z,67.98
2019-01-20T13:09:48.612Z,67.80
2019-01-20T13:12:19.599Z,68.49
2019-01-20T13:14:50.221Z,68.69
2019-01-20T13:17:21.542Z,68.73
2019-01-20T13:19:52.500Z,69.06
2019-01-20T13:22:23.119Z,69.13
2019-01-20T13:24:53.761Z,69.29
2019-01-20T13:27:24.384Z,69.30
2019-01-20T13:29:55.368Z,69.69
2019-01-20T13:32:25.981Z,68.93
2019-01-20T13:34:56.944Z,69.22
2019-01-20T13:37:30.385Z,69.91
2019-01-20T13:40:00.998Z,69.70
2019-01-20T13:42:32.071Z,69.97
2019-01-20T13:45:03.469Z,69.77
2019-01-20T13:47:34.428Z,70.14
2019-01-20T13:50:06.295Z,69.32
2019-01-20T13:52:37.009Z,69.27
2019-01-20T13:55:09.545Z,69.35
2019-01-20T13:57:40.950Z,70.14
2019-01-20T14:00:17.125Z,69.64
2019-01-20T14:02:47.868Z,69.85
2019-01-20T14:05:18.697Z,70.47
2019-01-20T14:07:49.333Z,69.85
2019-01-20T14:10:20.572Z,70.27
2019-01-20T14:12:54.328Z,70.27
2019-01-20T14:15:25.794Z,70.48
2019-01-20T14:17:56.412Z,70.66
2019-01-20T14:20:27.173Z,71.14
2019-01-20T14:22:58.407Z,71.23
2019-01-20T14:25:29.078Z,71.59
2019-01-20T14:28:00.006Z,71.17
2019-01-20T14:30:31.880Z,71.49
2019-01-20T14:33:04.925Z,72.04
2019-01-20T14:35:35.570Z,71.64
2019-01-20T14:38:06.488Z,72.04
2019-01-20T14:40:37.134Z,72.60
2019-01-20T14:43:07.959Z,74.10
2019-01-20T14:45:38.634Z,74.67
2019-01-20T14:48:09.644Z,74.93
2019-01-20T14:50:40.371Z,74.70
2019-01-20T14:53:11.151Z,75.29
2019-01-20T14:55:42.311Z,75.71
2019-01-20T14:58:13.874Z,76.32
2019-01-20T15:00:44.587Z,75.75
2019-01-20T15:03:15.618Z,76.49
2019-01-20T15:05:46.315Z,76.50
2019-01-20T15:08:16.952Z,76.76
2019-01-20T15:10:47.620Z,77.46
2019-01-20T15:13:18.330Z,77.45
2019-01-20T15:15:49.062Z,77.40
2019-01-20T15:18:20.182Z,77.46
2019-01-20T15:20:50.892Z,77.19
2019-01-20T15:23:21.541Z,77.12
2019-01-20T15:25:52.128Z,77.69
2019-01-20T15:28:25.945Z,77.94
2019-01-20T15:30:56.631Z,78.65
2019-01-20T15:33:27.247Z,78.80
2019-01-20T15:35:58.462Z,79.06
2019-01-20T15:38:29.096Z,79.29
2019-01-20T15:41:00.102Z,78.81
2019-01-20T15:43:31.269Z,79.37
2019-01-20T15:46:02.011Z,79.10
2019-01-20T15:48:32.900Z,79.90
2019-01-20T15:51:06.522Z,79.78
2019-01-20T15:53:37.239Z,80.29
2019-01-20T15:56:07.969Z,80.01
2019-01-20T15:58:38.995Z,80.65
2019-01-20T16:01:10.027Z,80.57
2019-01-20T16:03:40.792Z,80.87
2019-01-20T16:06:11.624Z,81.21
2019-01-20T16:08:42.339Z,81.47
2019-01-20T16:11:13.038Z,81.71
2019-01-20T16:13:43.758Z,81.55
2019-01-20T16:16:15.102Z,81.19
2019-01-20T16:18:45.746Z,82.17
2019-01-20T16:21:16.824Z,81.88
2019-01-20T16:23:47.501Z,81.83
2019-01-20T16:26:18.408Z,82.32
2019-01-20T16:28:49.377Z,82.81
2019-01-20T16:31:20.060Z,82.83
2019-01-20T16:33:50.699Z,83.08
2019-01-20T16:36:21.445Z,82.92
2019-01-20T16:38:52.180Z,82.67
2019-01-20T16:41:22.987Z,83.10
2019-01-20T16:43:53.683Z,83.02
2019-01-20T16:46:24.622Z,83.17
2019-01-20T16:48:55.359Z,82.72
2019-01-20T16:51:26.116Z,82.90
2019-01-20T16:53:57.155Z,82.47
2019-01-20T16:56:28.065Z,83.07
2019-01-20T16:58:58.752Z,83.56
2019-01-20T17:01:29.454Z,83.96
2019-01-20T17:04:00.099Z,84.03
2019-01-20T17:06:30.850Z,84.30
2019-01-20T17:09:01.884Z,84.50
2019-01-20T17:11:32.798Z,83.68
2019-01-20T17:14:03.645Z,83.38
2019-01-20T17:16:34.507Z,83.83
2019-01-20T17:19:05.244Z,83.65
2019-01-20T17:21:36.229Z,83.60
2019-01-20T17:24:06.914Z,83.39
2019-01-20T17:26:37.940Z,83.68
2019-01-20T17:29:08.931Z,83.69
2019-01-20T17:31:39.581Z,83.83
2019-01-20T17:34:10.260Z,83.86
2019-01-20T17:36:41.000Z,83.65
2019-01-20T17:39:12.297Z,83.85
2019-01-20T17:41:43.005Z,83.83
2019-01-20T17:44:13.816Z,84.38
2019-01-20T17:46:44.547Z,84.23
2019-01-20T17:49:15.225Z,84.03
2019-01-20T17:51:46.921Z,84.22
2019-01-20T17:54:17.866Z,84.20
2019-01-20T17:56:48.897Z,84.38
2019-01-20T17:59:19.728Z,84.24
2019-01-20T18:01:50.326Z,84.21
2019-01-20T18:04:21.275Z,84.50
2019-01-20T18:06:52.010Z,84.32
2019-01-20T18:09:22.620Z,84.45
2019-01-20T18:11:53.299Z,84.44
2019-01-20T18:14:25.350Z,84.80
2019-01-20T18:16:56.296Z,84.69
2019-01-20T18:19:26.937Z,84.42
2019-01-20T18:21:57.685Z,84.28
2019-01-20T18:24:28.313Z,84.58
2019-01-20T18:26:59.247Z,85.12
2019-01-20T18:29:33.013Z,84.93
2019-01-20T18:32:03.651Z,85.14
2019-01-20T18:34:34.326Z,85.07
2019-01-20T18:37:07.863Z,85.30
2019-01-20T18:39:38.856Z,85.44
2019-01-20T18:42:09.892Z,85.23
2019-01-20T18:44:40.616Z,85.11
2019-01-20T18:47:11.983Z,85.39
2019-01-20T18:49:42.969Z,85.52
2019-01-20T18:52:13.722Z,85.44
2019-01-20T18:54:44.391Z,85.74
2019-01-20T18:57:15.391Z,86.11
2019-01-20T18:59:46.222Z,86.23
2019-01-20T19:02:17.125Z,86.54
2019-01-20T19:04:50.707Z,86.48
2019-01-20T19:07:23.387Z,86.64
2019-01-20T19:09:54.028Z,86.93
2019-01-20T19:12:24.992Z,86.73
2019-01-20T19:14:56.060Z,87.14
2019-01-20T19:17:27.752Z,87.19
2019-01-20T19:20:00.251Z,87.06
2019-01-20T19:22:31.351Z,86.74
2019-01-20T19:25:02.410Z,86.95
2019-01-20T19:27:33.422Z,86.86
2019-01-20T19:30:05.130Z,86.85
2019-01-20T19:32:36.175Z,87.01
2019-01-20T19:35:08.506Z,87.24
2019-01-20T19:37:39.573Z,86.94
2019-01-20T19:40:11.690Z,86.91
2019-01-20T19:42:42.494Z,86.59
2019-01-20T19:45:15.872Z,86.09
2019-01-20T19:47:46.863Z,85.72
2019-01-20T19:50:18.323Z,85.68
2019-01-20T19:52:49.726Z,85.82
2019-01-20T19:55:37.553Z,85.87
2019-01-20T19:58:09.901Z,85.58
2019-01-20T20:00:40.872Z,85.53
2019-01-20T20:03:12.324Z,86.12
2019-01-20T20:05:43.762Z,86.14
2019-01-20T20:08:14.865Z,86.49
2019-01-20T20:14:28.506Z,86.27
2019-01-20T20:16:59.870Z,86.28
2019-01-20T20:19:31.737Z,85.96
2019-01-20T20:22:03.244Z,86.24
2019-01-20T20:24:35.565Z,86.71
2019-01-20T20:27:06.229Z,86.63
2019-01-20T20:29:37.265Z,87.04
2019-01-20T20:32:07.950Z,86.91
2019-01-20T20:34:39.036Z,86.58
2019-01-20T20:37:10.003Z,86.71
2019-01-20T20:39:41.457Z,86.23
2019-01-20T20:42:12.628Z,86.12
2019-01-20T20:44:43.787Z,86.13
2019-01-20T20:47:15.220Z,86.21
2019-01-20T20:49:45.935Z,85.98
2019-01-20T20:52:17.617Z,85.83
2019-01-20T20:54:48.594Z,86.17
2019-01-20T20:57:19.852Z,86.07
2019-01-20T20:59:51.030Z,85.94
2019-01-20T21:02:22.388Z,86.21
2019-01-20T21:04:53.386Z,86.16
2019-01-20T21:07:24.846Z,86.42
2019-01-20T21:09:56.538Z,86.37
2019-01-20T21:12:27.918Z,86.85
2019-01-20T21:15:03.280Z,87.31
2019-01-20T21:17:32.514Z,87.53
2019-01-20T21:20:03.543Z,88.24
2019-01-20T21:22:34.641Z,88.37
2019-01-20T21:25:07.009Z,88.37
2019-01-20T21:27:38.948Z,88.38
2019-01-20T21:30:14.673Z,88.34
2019-01-20T21:32:45.777Z,88.65
2019-01-20T21:35:18.740Z,88.73
2019-01-20T21:37:49.809Z,88.57
2019-01-20T21:40:20.942Z,88.43
2019-01-20T21:42:52.265Z,88.21
2019-01-20T21:45:23.305Z,87.99
2019-01-20T21:47:54.318Z,87.75
2019-01-20T21:50:31.354Z,87.71
2019-01-20T21:53:04.575Z,87.50
2019-01-20T21:55:37.543Z,87.51
2019-01-20T21:58:08.515Z,87.33
2019-01-20T22:00:39.627Z,87.52
2019-01-20T22:03:10.699Z,87.95
2019-01-20T22:05:41.400Z,88.47
2019-01-20T22:08:13.479Z,88.21
2019-01-20T22:10:44.477Z,87.87
2019-01-20T22:13:15.380Z,87.91
2019-01-20T22:15:47.291Z,87.69
2019-01-20T22:18:18.633Z,87.38
2019-01-20T22:20:50.051Z,87.77
2019-01-20T22:23:21.184Z,87.67
2019-01-20T22:25:52.546Z,87.07
2019-01-20T22:28:23.906Z,86.32
2019-01-20T22:30:55.364Z,86.24
2019-01-20T22:33:28.823Z,86.16
2019-01-20T22:35:59.873Z,85.93
2019-01-20T22:38:31.238Z,86.16
2019-01-20T22:41:02.326Z,86.32
2019-01-20T22:43:33.047Z,86.16
2019-01-20T22:46:03.781Z,85.98
2019-01-20T22:48:34.437Z,85.71
2019-01-20T22:51:05.132Z,85.38
2019-01-20T22:53:36.190Z,85.35
2019-01-20T22:56:06.864Z,85.45
2019-01-20T22:58:37.681Z,85.54
2019-01-20T23:01:20.886Z,85.33
2019-01-20T23:03:51.943Z,85.34
2019-01-20T23:06:22.989Z,85.55
2019-01-20T23:08:53.993Z,85.36
2019-01-20T23:11:24.741Z,85.48
2019-01-20T23:13:55.725Z,85.42
2019-01-20T23:16:27.483Z,85.57
2019-01-20T23:18:58.784Z,85.40
2019-01-20T23:21:29.782Z,85.41
2019-01-20T23:24:00.819Z,85.58
2019-01-20T23:26:32.339Z,85.74
2019-01-20T23:29:03.542Z,86.76
2019-01-20T23:31:34.578Z,87.10
2019-01-20T23:34:06.125Z,86.54
2019-01-20T23:36:37.443Z,86.81
2019-01-20T23:39:09.434Z,87.26
2019-01-20T23:41:40.407Z,86.77
2019-01-20T23:44:11.587Z,86.16
2019-01-20T23:46:42.313Z,85.98
2019-01-20T23:49:13.318Z,85.79
2019-01-20T23:51:47.459Z,86.03
2019-01-20T23:54:18.588Z,86.35
2019-01-20T23:56:50.112Z,86.78
2019-01-20T23:59:22.449Z,86.43
